sensor_id;sensor_type;location;lat;lon;timestamp;temperature;humidity
50586;DHT22;36542;51.700;8.846;2023-04-24T00:02:12;10.40;99.90
50586;DHT22;36542;51.700;8.846;2023-04-24T00:04:38;10.40;99.90
50586;DHT22;36542;51.700;8.846;2023-04-24T00:07:06;10.30;99.90
50586;DHT22;36542;51.700;8.846;2023-04-24T00:09:32;10.30;99.90
50586;DHT22;36542;51.700;8.846;2023-04-24T00:11:57;10.30;99.90
50586;DHT22;36542;51.700;8.846;2023-04-24T00:14:23;10.20;99.90
50586;DHT22;36542;51.700;8.846;2023-04-24T00:16:48;10.10;99.90
50586;DHT22;36542;51.700;8.846;2023-04-24T00:19:14;10.10;99.90
50586;DHT22;36542;51.700;8.846;2023-04-24T00:21:40;10.10;99.90
50586;DHT22;36542;51.700;8.846;2023-04-24T00:24:06;10.00;99.90
50586;DHT22;36542;51.700;8.846;2023-04-24T00:26:34;9.90;99.90
50586;DHT22;36542;51.700;8.846;2023-04-24T00:28:59;9.90;99.90
50586;DHT22;36542;51.700;8.846;2023-04-24T00:31:25;9.70;99.90
50586;DHT22;36542;51.700;8.846;2023-04-24T00:33:50;9.70;99.90
50586;DHT22;36542;51.700;8.846;2023-04-24T00:36:16;9.70;99.90
50586;DHT22;36542;51.700;8.846;2023-04-24T00:38:41;9.60;99.90
50586;DHT22;36542;51.700;8.846;2023-04-24T00:41:07;9.60;99.90
50586;DHT22;36542;51.700;8.846;2023-04-24T00:43:33;9.60;99.90
50586;DHT22;36542;51.700;8.846;2023-04-24T00:45:58;9.60;99.90
50586;DHT22;36542;51.700;8.846;2023-04-24T00:48:25;9.50;99.90
50586;DHT22;36542;51.700;8.846;2023-04-24T00:50:50;9.60;99.90
50586;DHT22;36542;51.700;8.846;2023-04-24T00:53:16;9.60;99.90
50586;DHT22;36542;51.700;8.846;2023-04-24T00:55:41;9.60;99.90
50586;DHT22;36542;51.700;8.846;2023-04-24T00:58:07;9.50;99.90
50586;DHT22;36542;51.700;8.846;2023-04-24T01:00:32;9.50;99.90
50586;DHT22;36542;51.700;8.846;2023-04-24T01:03:01;9.50;99.90
50586;DHT22;36542;51.700;8.846;2023-04-24T01:05:28;9.40;99.90
50586;DHT22;36542;51.700;8.846;2023-04-24T01:07:53;9.40;99.90
50586;DHT22;36542;51.700;8.846;2023-04-24T01:10:19;9.30;99.90
50586;DHT22;36542;51.700;8.846;2023-04-24T01:12:46;9.40;99.90
50586;DHT22;36542;51.700;8.846;2023-04-24T01:15:11;9.50;99.90
50586;DHT22;36542;51.700;8.846;2023-04-24T01:17:37;9.50;99.90
50586;DHT22;36542;51.700;8.846;2023-04-24T01:20:04;9.60;99.90
50586;DHT22;36542;51.700;8.846;2023-04-24T01:22:31;9.70;99.90
50586;DHT22;36542;51.700;8.846;2023-04-24T01:24:56;9.70;99.90
50586;DHT22;36542;51.700;8.846;2023-04-24T01:27:22;9.70;99.90
50586;DHT22;36542;51.700;8.846;2023-04-24T01:29:48;9.80;99.90
50586;DHT22;36542;51.700;8.846;2023-04-24T01:32:14;9.90;99.90
50586;DHT22;36542;51.700;8.846;2023-04-24T01:34:40;9.90;99.90
50586;DHT22;36542;51.700;8.846;2023-04-24T01:37:06;9.90;99.90
50586;DHT22;36542;51.700;8.846;2023-04-24T01:39:32;9.90;99.90
50586;DHT22;36542;51.700;8.846;2023-04-24T01:41:59;10.00;99.90
50586;DHT22;36542;51.700;8.846;2023-04-24T01:44:25;9.90;99.90
50586;DHT22;36542;51.700;8.846;2023-04-24T01:46:51;9.90;99.90
50586;DHT22;36542;51.700;8.846;2023-04-24T01:49:18;9.90;99.90
50586;DHT22;36542;51.700;8.846;2023-04-24T01:51:44;9.90;99.90
50586;DHT22;36542;51.700;8.846;2023-04-24T01:54:09;10.00;99.90
50586;DHT22;36542;51.700;8.846;2023-04-24T01:56:35;9.90;99.90
50586;DHT22;36542;51.700;8.846;2023-04-24T01:59:02;9.90;99.90
50586;DHT22;36542;51.700;8.846;2023-04-24T02:01:33;9.90;99.90
50586;DHT22;36542;51.700;8.846;2023-04-24T02:04:00;9.90;99.90
50586;DHT22;36542;51.700;8.846;2023-04-24T02:06:25;9.90;99.90
50586;DHT22;36542;51.700;8.846;2023-04-24T02:08:50;9.90;99.90
50586;DHT22;36542;51.700;8.846;2023-04-24T02:11:16;10.00;99.90
50586;DHT22;36542;51.700;8.846;2023-04-24T02:13:41;10.00;99.90
50586;DHT22;36542;51.700;8.846;2023-04-24T02:16:07;10.00;99.90
50586;DHT22;36542;51.700;8.846;2023-04-24T02:18:32;10.10;99.90
50586;DHT22;36542;51.700;8.846;2023-04-24T02:20:58;10.10;99.90
50586;DHT22;36542;51.700;8.846;2023-04-24T02:23:23;10.20;99.90
50586;DHT22;36542;51.700;8.846;2023-04-24T02:25:49;10.20;99.90
50586;DHT22;36542;51.700;8.846;2023-04-24T02:28:14;10.20;99.90
50586;DHT22;36542;51.700;8.846;2023-04-24T02:30:40;10.20;99.90
50586;DHT22;36542;51.700;8.846;2023-04-24T02:33:05;10.20;99.90
50586;DHT22;36542;51.700;8.846;2023-04-24T02:35:31;10.10;99.90
50586;DHT22;36542;51.700;8.846;2023-04-24T02:37:56;10.20;99.90
50586;DHT22;36542;51.700;8.846;2023-04-24T02:40:22;10.10;99.90
50586;DHT22;36542;51.700;8.846;2023-04-24T02:42:47;10.10;99.90
50586;DHT22;36542;51.700;8.846;2023-04-24T02:45:13;10.10;99.90
50586;DHT22;36542;51.700;8.846;2023-04-24T02:47:38;10.10;99.90
50586;DHT22;36542;51.700;8.846;2023-04-24T02:50:04;10.10;99.90
50586;DHT22;36542;51.700;8.846;2023-04-24T02:52:30;10.00;99.90
50586;DHT22;36542;51.700;8.846;2023-04-24T02:54:55;10.00;99.90
50586;DHT22;36542;51.700;8.846;2023-04-24T02:57:21;10.00;99.90
50586;DHT22;36542;51.700;8.846;2023-04-24T02:59:46;10.00;99.90
50586;DHT22;36542;51.700;8.846;2023-04-24T03:02:12;10.00;99.90
50586;DHT22;36542;51.700;8.846;2023-04-24T03:04:37;10.00;99.90
50586;DHT22;36542;51.700;8.846;2023-04-24T03:07:05;9.90;99.90
50586;DHT22;36542;51.700;8.846;2023-04-24T03:09:31;9.90;99.90
50586;DHT22;36542;51.700;8.846;2023-04-24T03:11:56;9.90;99.90
50586;DHT22;36542;51.700;8.846;2023-04-24T03:14:23;9.90;99.90
50586;DHT22;36542;51.700;8.846;2023-04-24T03:16:48;9.90;99.90
50586;DHT22;36542;51.700;8.846;2023-04-24T03:19:15;9.90;99.90
50586;DHT22;36542;51.700;8.846;2023-04-24T03:21:41;9.90;99.90
50586;DHT22;36542;51.700;8.846;2023-04-24T03:24:09;9.90;99.90
50586;DHT22;36542;51.700;8.846;2023-04-24T03:26:35;9.90;99.90
50586;DHT22;36542;51.700;8.846;2023-04-24T03:29:01;9.80;99.90
50586;DHT22;36542;51.700;8.846;2023-04-24T03:31:26;9.90;99.90
50586;DHT22;36542;51.700;8.846;2023-04-24T03:33:52;9.90;99.90
50586;DHT22;36542;51.700;8.846;2023-04-24T03:36:17;9.90;99.90
50586;DHT22;36542;51.700;8.846;2023-04-24T03:38:44;9.90;99.90
50586;DHT22;36542;51.700;8.846;2023-04-24T03:41:10;9.80;99.90
50586;DHT22;36542;51.700;8.846;2023-04-24T03:43:36;9.80;99.90
50586;DHT22;36542;51.700;8.846;2023-04-24T03:46:02;9.80;99.90
50586;DHT22;36542;51.700;8.846;2023-04-24T03:48:28;9.80;99.90
50586;DHT22;36542;51.700;8.846;2023-04-24T03:50:53;9.80;99.90
50586;DHT22;36542;51.700;8.846;2023-04-24T03:53:19;9.80;99.90
50586;DHT22;36542;51.700;8.846;2023-04-24T03:55:45;9.70;99.90
50586;DHT22;36542;51.700;8.846;2023-04-24T03:58:11;9.70;99.90
50586;DHT22;36542;51.700;8.846;2023-04-24T04:00:36;9.70;99.90
50586;DHT22;36542;51.700;8.846;2023-04-24T04:03:03;9.70;99.90
50586;DHT22;36542;51.700;8.846;2023-04-24T04:05:28;9.70;99.90
50586;DHT22;36542;51.700;8.846;2023-04-24T04:07:54;9.70;99.90
50586;DHT22;36542;51.700;8.846;2023-04-24T04:10:19;9.70;99.90
50586;DHT22;36542;51.700;8.846;2023-04-24T04:12:45;9.70;99.90
50586;DHT22;36542;51.700;8.846;2023-04-24T04:15:11;9.70;99.90
50586;DHT22;36542;51.700;8.846;2023-04-24T04:17:36;9.70;99.90
50586;DHT22;36542;51.700;8.846;2023-04-24T04:20:03;9.70;99.90
50586;DHT22;36542;51.700;8.846;2023-04-24T04:22:34;9.70;99.90
50586;DHT22;36542;51.700;8.846;2023-04-24T04:25:00;9.70;99.90
50586;DHT22;36542;51.700;8.846;2023-04-24T04:27:25;9.60;99.90
50586;DHT22;36542;51.700;8.846;2023-04-24T04:29:51;9.50;99.90
50586;DHT22;36542;51.700;8.846;2023-04-24T04:32:17;9.40;99.90
50586;DHT22;36542;51.700;8.846;2023-04-24T04:34:43;9.30;99.90
50586;DHT22;36542;51.700;8.846;2023-04-24T04:37:10;9.20;99.90
50586;DHT22;36542;51.700;8.846;2023-04-24T04:39:37;8.90;99.90
50586;DHT22;36542;51.700;8.846;2023-04-24T04:42:03;8.80;99.90
50586;DHT22;36542;51.700;8.846;2023-04-24T04:44:29;8.70;99.90
50586;DHT22;36542;51.700;8.846;2023-04-24T04:46:56;8.70;99.90
50586;DHT22;36542;51.700;8.846;2023-04-24T04:49:22;8.70;99.90
50586;DHT22;36542;51.700;8.846;2023-04-24T04:51:49;8.70;99.90
50586;DHT22;36542;51.700;8.846;2023-04-24T04:54:16;8.70;99.90
50586;DHT22;36542;51.700;8.846;2023-04-24T04:56:41;8.80;99.90
50586;DHT22;36542;51.700;8.846;2023-04-24T04:59:07;8.80;99.90
50586;DHT22;36542;51.700;8.846;2023-04-24T05:01:32;8.80;99.90
50586;DHT22;36542;51.700;8.846;2023-04-24T05:03:57;8.90;99.90
50586;DHT22;36542;51.700;8.846;2023-04-24T05:06:23;8.90;99.90
50586;DHT22;36542;51.700;8.846;2023-04-24T05:08:48;8.90;99.90
50586;DHT22;36542;51.700;8.846;2023-04-24T05:11:14;8.90;99.90
50586;DHT22;36542;51.700;8.846;2023-04-24T05:13:40;8.90;99.90
50586;DHT22;36542;51.700;8.846;2023-04-24T05:16:06;8.90;99.90
50586;DHT22;36542;51.700;8.846;2023-04-24T05:18:31;8.90;99.90
50586;DHT22;36542;51.700;8.846;2023-04-24T05:20:57;9.00;99.90
50586;DHT22;36542;51.700;8.846;2023-04-24T05:23:22;9.00;99.90
50586;DHT22;36542;51.700;8.846;2023-04-24T05:25:48;9.10;99.90
50586;DHT22;36542;51.700;8.846;2023-04-24T05:28:14;9.10;99.90
50586;DHT22;36542;51.700;8.846;2023-04-24T05:30:40;9.00;99.90
50586;DHT22;36542;51.700;8.846;2023-04-24T05:33:06;9.00;99.90
50586;DHT22;36542;51.700;8.846;2023-04-24T05:35:31;8.90;99.90
50586;DHT22;36542;51.700;8.846;2023-04-24T05:37:57;8.90;99.90
50586;DHT22;36542;51.700;8.846;2023-04-24T05:40:22;8.90;99.90
50586;DHT22;36542;51.700;8.846;2023-04-24T05:42:48;8.90;99.90
50586;DHT22;36542;51.700;8.846;2023-04-24T05:45:13;8.90;99.90
50586;DHT22;36542;51.700;8.846;2023-04-24T05:47:42;9.00;99.90
50586;DHT22;36542;51.700;8.846;2023-04-24T05:50:09;9.00;99.90
50586;DHT22;36542;51.700;8.846;2023-04-24T05:52:35;9.00;99.90
50586;DHT22;36542;51.700;8.846;2023-04-24T05:55:00;8.90;99.90
50586;DHT22;36542;51.700;8.846;2023-04-24T05:57:26;8.90;99.90
50586;DHT22;36542;51.700;8.846;2023-04-24T05:59:51;9.00;99.90
50586;DHT22;36542;51.700;8.846;2023-04-24T06:02:17;9.30;99.90
50586;DHT22;36542;51.700;8.846;2023-04-24T06:04:42;9.60;99.90
50586;DHT22;36542;51.700;8.846;2023-04-24T06:07:10;9.60;99.90
50586;DHT22;36542;51.700;8.846;2023-04-24T06:09:36;10.40;99.90
50586;DHT22;36542;51.700;8.846;2023-04-24T06:12:02;11.80;99.90
50586;DHT22;36542;51.700;8.846;2023-04-24T06:14:27;13.00;99.90
50586;DHT22;36542;51.700;8.846;2023-04-24T06:16:53;13.40;99.90
50586;DHT22;36542;51.700;8.846;2023-04-24T06:19:18;13.80;99.90
50586;DHT22;36542;51.700;8.846;2023-04-24T06:21:44;14.20;99.90
50586;DHT22;36542;51.700;8.846;2023-04-24T06:24:10;14.00;99.90
50586;DHT22;36542;51.700;8.846;2023-04-24T06:26:35;13.80;99.90
50586;DHT22;36542;51.700;8.846;2023-04-24T06:29:01;13.90;99.90
50586;DHT22;36542;51.700;8.846;2023-04-24T06:31:27;14.00;99.90
50586;DHT22;36542;51.700;8.846;2023-04-24T06:33:52;14.40;99.90
50586;DHT22;36542;51.700;8.846;2023-04-24T06:36:18;15.00;99.90
50586;DHT22;36542;51.700;8.846;2023-04-24T06:38:43;14.30;99.90
50586;DHT22;36542;51.700;8.846;2023-04-24T06:41:10;14.20;99.90
50586;DHT22;36542;51.700;8.846;2023-04-24T06:43:35;14.30;99.90
50586;DHT22;36542;51.700;8.846;2023-04-24T06:46:01;14.30;99.90
50586;DHT22;36542;51.700;8.846;2023-04-24T06:48:28;13.70;99.90
50586;DHT22;36542;51.700;8.846;2023-04-24T06:50:54;12.80;99.90
50586;DHT22;36542;51.700;8.846;2023-04-24T06:53:19;11.60;99.90
50586;DHT22;36542;51.700;8.846;2023-04-24T06:55:45;10.60;99.90
50586;DHT22;36542;51.700;8.846;2023-04-24T06:58:11;10.30;99.90
50586;DHT22;36542;51.700;8.846;2023-04-24T07:00:37;10.20;99.90
50586;DHT22;36542;51.700;8.846;2023-04-24T07:03:03;9.80;99.90
50586;DHT22;36542;51.700;8.846;2023-04-24T07:05:30;9.80;99.90
50586;DHT22;36542;51.700;8.846;2023-04-24T07:07:56;9.70;99.90
50586;DHT22;36542;51.700;8.846;2023-04-24T07:10:23;9.80;99.90
50586;DHT22;36542;51.700;8.846;2023-04-24T07:12:49;9.60;99.90
50586;DHT22;36542;51.700;8.846;2023-04-24T07:15:15;9.60;99.90
50586;DHT22;36542;51.700;8.846;2023-04-24T07:17:41;9.60;99.90
50586;DHT22;36542;51.700;8.846;2023-04-24T07:20:10;9.70;99.90
50586;DHT22;36542;51.700;8.846;2023-04-24T07:22:37;9.70;99.90
50586;DHT22;36542;51.700;8.846;2023-04-24T07:25:03;9.60;99.90
50586;DHT22;36542;51.700;8.846;2023-04-24T07:27:28;9.80;99.90
50586;DHT22;36542;51.700;8.846;2023-04-24T07:29:54;10.00;99.90
50586;DHT22;36542;51.700;8.846;2023-04-24T07:32:19;10.30;99.90
50586;DHT22;36542;51.700;8.846;2023-04-24T07:34:45;10.40;99.90
50586;DHT22;36542;51.700;8.846;2023-04-24T07:37:11;10.50;99.90
50586;DHT22;36542;51.700;8.846;2023-04-24T07:39:36;10.80;99.90
50586;DHT22;36542;51.700;8.846;2023-04-24T07:42:02;11.30;99.90
50586;DHT22;36542;51.700;8.846;2023-04-24T07:44:29;11.40;99.90
50586;DHT22;36542;51.700;8.846;2023-04-24T07:46:55;11.60;99.90
50586;DHT22;36542;51.700;8.846;2023-04-24T07:49:21;11.50;99.90
50586;DHT22;36542;51.700;8.846;2023-04-24T07:51:46;11.10;99.90
50586;DHT22;36542;51.700;8.846;2023-04-24T07:54:12;11.00;99.90
50586;DHT22;36542;51.700;8.846;2023-04-24T07:56:37;10.70;99.90
50586;DHT22;36542;51.700;8.846;2023-04-24T07:59:08;10.60;99.90
50586;DHT22;36542;51.700;8.846;2023-04-24T08:01:35;10.60;99.90
50586;DHT22;36542;51.700;8.846;2023-04-24T08:04:00;10.70;99.90
50586;DHT22;36542;51.700;8.846;2023-04-24T08:06:26;10.80;99.90
50586;DHT22;36542;51.700;8.846;2023-04-24T08:08:55;10.40;99.90
50586;DHT22;36542;51.700;8.846;2023-04-24T08:11:21;10.30;99.90
50586;DHT22;36542;51.700;8.846;2023-04-24T08:13:46;10.10;99.90
50586;DHT22;36542;51.700;8.846;2023-04-24T08:16:12;10.00;99.90
50586;DHT22;36542;51.700;8.846;2023-04-24T08:18:37;10.00;99.90
50586;DHT22;36542;51.700;8.846;2023-04-24T08:21:03;10.10;99.90
50586;DHT22;36542;51.700;8.846;2023-04-24T08:23:29;10.00;99.90
50586;DHT22;36542;51.700;8.846;2023-04-24T08:25:55;9.90;99.90
50586;DHT22;36542;51.700;8.846;2023-04-24T08:28:20;9.90;99.90
50586;DHT22;36542;51.700;8.846;2023-04-24T08:30:47;10.00;99.90
50586;DHT22;36542;51.700;8.846;2023-04-24T08:33:14;10.00;99.90
50586;DHT22;36542;51.700;8.846;2023-04-24T08:35:40;10.00;99.90
50586;DHT22;36542;51.700;8.846;2023-04-24T08:38:05;10.00;99.90
50586;DHT22;36542;51.700;8.846;2023-04-24T08:40:34;10.00;99.90
50586;DHT22;36542;51.700;8.846;2023-04-24T08:42:59;10.00;99.90
50586;DHT22;36542;51.700;8.846;2023-04-24T08:45:25;10.00;99.90
50586;DHT22;36542;51.700;8.846;2023-04-24T08:47:52;10.00;99.90
50586;DHT22;36542;51.700;8.846;2023-04-24T08:50:19;10.20;99.90
50586;DHT22;36542;51.700;8.846;2023-04-24T08:52:44;10.20;99.90
50586;DHT22;36542;51.700;8.846;2023-04-24T08:55:10;10.20;99.90
50586;DHT22;36542;51.700;8.846;2023-04-24T08:57:36;10.50;99.90
50586;DHT22;36542;51.700;8.846;2023-04-24T09:00:04;11.20;99.90
50586;DHT22;36542;51.700;8.846;2023-04-24T09:02:30;11.30;99.90
50586;DHT22;36542;51.700;8.846;2023-04-24T09:04:57;12.20;99.90
50586;DHT22;36542;51.700;8.846;2023-04-24T09:07:24;12.00;99.90
50586;DHT22;36542;51.700;8.846;2023-04-24T09:09:53;11.60;99.90
50586;DHT22;36542;51.700;8.846;2023-04-24T09:12:19;11.70;99.90
50586;DHT22;36542;51.700;8.846;2023-04-24T09:14:45;11.90;99.90
50586;DHT22;36542;51.700;8.846;2023-04-24T09:17:11;11.70;99.90
50586;DHT22;36542;51.700;8.846;2023-04-24T09:19:37;11.30;99.90
50586;DHT22;36542;51.700;8.846;2023-04-24T09:22:06;10.80;99.90
50586;DHT22;36542;51.700;8.846;2023-04-24T09:24:33;10.50;99.90
50586;DHT22;36542;51.700;8.846;2023-04-24T09:26:59;10.40;99.90
50586;DHT22;36542;51.700;8.846;2023-04-24T09:29:26;10.30;99.90
50586;DHT22;36542;51.700;8.846;2023-04-24T09:31:52;10.00;99.90
50586;DHT22;36542;51.700;8.846;2023-04-24T09:34:25;10.10;99.90
50586;DHT22;36542;51.700;8.846;2023-04-24T09:36:51;10.20;99.90
50586;DHT22;36542;51.700;8.846;2023-04-24T09:39:17;10.30;99.90
50586;DHT22;36542;51.700;8.846;2023-04-24T09:41:53;10.40;99.90
50586;DHT22;36542;51.700;8.846;2023-04-24T09:44:20;10.40;99.90
50586;DHT22;36542;51.700;8.846;2023-04-24T09:46:56;10.40;99.90
50586;DHT22;36542;51.700;8.846;2023-04-24T09:49:26;10.60;99.90
50586;DHT22;36542;51.700;8.846;2023-04-24T09:51:52;10.50;99.90
50586;DHT22;36542;51.700;8.846;2023-04-24T09:54:20;10.30;99.90
50586;DHT22;36542;51.700;8.846;2023-04-24T09:56:49;10.10;99.90
50586;DHT22;36542;51.700;8.846;2023-04-24T09:59:16;10.10;99.90
50586;DHT22;36542;51.700;8.846;2023-04-24T10:01:42;10.10;99.90
50586;DHT22;36542;51.700;8.846;2023-04-24T10:04:23;10.20;99.90
50586;DHT22;36542;51.700;8.846;2023-04-24T10:06:51;10.30;99.90
50586;DHT22;36542;51.700;8.846;2023-04-24T10:09:18;10.40;99.90
50586;DHT22;36542;51.700;8.846;2023-04-24T10:11:45;10.80;99.90
50586;DHT22;36542;51.700;8.846;2023-04-24T10:14:16;11.20;99.90
50586;DHT22;36542;51.700;8.846;2023-04-24T10:16:43;11.10;99.90
50586;DHT22;36542;51.700;8.846;2023-04-24T10:19:09;11.10;99.90
50586;DHT22;36542;51.700;8.846;2023-04-24T10:21:36;11.00;99.90
50586;DHT22;36542;51.700;8.846;2023-04-24T10:24:08;10.90;99.90
50586;DHT22;36542;51.700;8.846;2023-04-24T10:26:34;10.70;99.90
50586;DHT22;36542;51.700;8.846;2023-04-24T10:29:01;10.60;99.90
50586;DHT22;36542;51.700;8.846;2023-04-24T10:31:27;10.40;99.90
50586;DHT22;36542;51.700;8.846;2023-04-24T10:33:56;10.20;99.90
50586;DHT22;36542;51.700;8.846;2023-04-24T10:36:23;9.80;99.90
50586;DHT22;36542;51.700;8.846;2023-04-24T10:38:52;9.20;99.90
50586;DHT22;36542;51.700;8.846;2023-04-24T10:41:20;9.10;99.90
50586;DHT22;36542;51.700;8.846;2023-04-24T10:44:07;9.20;99.90
50586;DHT22;36542;51.700;8.846;2023-04-24T10:46:33;9.20;99.90
50586;DHT22;36542;51.700;8.846;2023-04-24T10:48:59;9.50;99.90
50586;DHT22;36542;51.700;8.846;2023-04-24T10:51:44;9.80;99.90
50586;DHT22;36542;51.700;8.846;2023-04-24T10:54:28;9.80;99.90
50586;DHT22;36542;51.700;8.846;2023-04-24T11:00:15;9.10;99.90
50586;DHT22;36542;51.700;8.846;2023-04-24T11:02:41;8.90;99.90
50586;DHT22;36542;51.700;8.846;2023-04-24T11:05:15;8.90;99.90
50586;DHT22;36542;51.700;8.846;2023-04-24T11:08:13;8.70;99.90
50586;DHT22;36542;51.700;8.846;2023-04-24T11:10:43;8.40;99.90
50586;DHT22;36542;51.700;8.846;2023-04-24T11:13:09;8.50;99.90
50586;DHT22;36542;51.700;8.846;2023-04-24T11:15:34;8.50;99.90
50586;DHT22;36542;51.700;8.846;2023-04-24T11:18:00;8.50;99.90
50586;DHT22;36542;51.700;8.846;2023-04-24T11:20:25;8.40;99.90
50586;DHT22;36542;51.700;8.846;2023-04-24T11:22:53;8.50;99.90
50586;DHT22;36542;51.700;8.846;2023-04-24T11:25:21;8.50;99.90
50586;DHT22;36542;51.700;8.846;2023-04-24T11:27:48;8.40;99.90
50586;DHT22;36542;51.700;8.846;2023-04-24T11:30:18;8.50;99.90
50586;DHT22;36542;51.700;8.846;2023-04-24T11:32:47;8.40;99.90
50586;DHT22;36542;51.700;8.846;2023-04-24T11:35:18;8.40;99.90
50586;DHT22;36542;51.700;8.846;2023-04-24T11:37:46;8.50;99.90
50586;DHT22;36542;51.700;8.846;2023-04-24T11:40:14;8.60;99.90
50586;DHT22;36542;51.700;8.846;2023-04-24T11:42:45;8.40;99.90
50586;DHT22;36542;51.700;8.846;2023-04-24T11:45:13;8.30;99.90
50586;DHT22;36542;51.700;8.846;2023-04-24T11:47:40;8.30;99.90
50586;DHT22;36542;51.700;8.846;2023-04-24T11:50:08;8.30;99.90
50586;DHT22;36542;51.700;8.846;2023-04-24T11:52:37;8.30;99.90
50586;DHT22;36542;51.700;8.846;2023-04-24T11:55:03;8.20;99.90
50586;DHT22;36542;51.700;8.846;2023-04-24T11:57:29;8.30;99.90
50586;DHT22;36542;51.700;8.846;2023-04-24T12:00:03;8.30;99.90
50586;DHT22;36542;51.700;8.846;2023-04-24T12:02:29;8.40;99.90
50586;DHT22;36542;51.700;8.846;2023-04-24T12:04:55;8.60;99.90
50586;DHT22;36542;51.700;8.846;2023-04-24T12:07:22;8.70;99.90
50586;DHT22;36542;51.700;8.846;2023-04-24T12:09:55;8.70;99.90
50586;DHT22;36542;51.700;8.846;2023-04-24T12:12:20;8.80;99.90
50586;DHT22;36542;51.700;8.846;2023-04-24T12:14:53;8.70;99.90
50586;DHT22;36542;51.700;8.846;2023-04-24T12:17:25;8.70;99.90
50586;DHT22;36542;51.700;8.846;2023-04-24T12:19:51;8.40;99.90
50586;DHT22;36542;51.700;8.846;2023-04-24T12:22:17;8.40;99.90
50586;DHT22;36542;51.700;8.846;2023-04-24T12:25:03;8.20;99.90
50586;DHT22;36542;51.700;8.846;2023-04-24T12:27:31;8.00;99.90
50586;DHT22;36542;51.700;8.846;2023-04-24T12:29:58;7.90;99.90
50586;DHT22;36542;51.700;8.846;2023-04-24T12:32:24;7.80;99.90
50586;DHT22;36542;51.700;8.846;2023-04-24T12:34:51;7.80;99.90
50586;DHT22;36542;51.700;8.846;2023-04-24T12:37:19;7.80;99.90
50586;DHT22;36542;51.700;8.846;2023-04-24T12:40:05;7.70;99.90
50586;DHT22;36542;51.700;8.846;2023-04-24T12:42:32;7.60;99.90
50586;DHT22;36542;51.700;8.846;2023-04-24T12:45:04;7.60;99.90
50586;DHT22;36542;51.700;8.846;2023-04-24T12:47:30;7.60;99.90
50586;DHT22;36542;51.700;8.846;2023-04-24T12:49:56;7.60;99.90
50586;DHT22;36542;51.700;8.846;2023-04-24T12:52:23;7.60;99.90
50586;DHT22;36542;51.700;8.846;2023-04-24T12:54:50;7.50;99.90
50586;DHT22;36542;51.700;8.846;2023-04-24T12:57:16;7.60;99.90
50586;DHT22;36542;51.700;8.846;2023-04-24T12:59:41;7.60;99.90
50586;DHT22;36542;51.700;8.846;2023-04-24T13:02:07;7.70;99.90
50586;DHT22;36542;51.700;8.846;2023-04-24T13:04:34;7.80;99.90
50586;DHT22;36542;51.700;8.846;2023-04-24T13:07:00;7.80;99.90
50586;DHT22;36542;51.700;8.846;2023-04-24T13:09:25;7.70;99.90
50586;DHT22;36542;51.700;8.846;2023-04-24T13:11:51;7.70;99.90
50586;DHT22;36542;51.700;8.846;2023-04-24T13:14:16;7.70;99.90
50586;DHT22;36542;51.700;8.846;2023-04-24T13:16:41;7.80;99.90
50586;DHT22;36542;51.700;8.846;2023-04-24T13:19:07;7.70;99.90
50586;DHT22;36542;51.700;8.846;2023-04-24T13:21:32;7.80;99.90
50586;DHT22;36542;51.700;8.846;2023-04-24T13:23:58;7.80;99.90
50586;DHT22;36542;51.700;8.846;2023-04-24T13:26:24;7.90;99.90
50586;DHT22;36542;51.700;8.846;2023-04-24T13:28:50;8.00;99.90
50586;DHT22;36542;51.700;8.846;2023-04-24T13:31:15;8.00;99.90
50586;DHT22;36542;51.700;8.846;2023-04-24T13:33:41;8.20;99.90
50586;DHT22;36542;51.700;8.846;2023-04-24T13:36:07;8.10;99.90
50586;DHT22;36542;51.700;8.846;2023-04-24T13:38:32;7.90;99.90
50586;DHT22;36542;51.700;8.846;2023-04-24T13:40:58;7.90;99.90
50586;DHT22;36542;51.700;8.846;2023-04-24T13:43:23;8.00;99.90
50586;DHT22;36542;51.700;8.846;2023-04-24T13:45:49;8.00;99.90
50586;DHT22;36542;51.700;8.846;2023-04-24T13:48:14;7.90;99.90
50586;DHT22;36542;51.700;8.846;2023-04-24T13:50:41;8.10;99.90
50586;DHT22;36542;51.700;8.846;2023-04-24T13:53:07;8.10;99.90
50586;DHT22;36542;51.700;8.846;2023-04-24T13:55:32;8.10;99.90
50586;DHT22;36542;51.700;8.846;2023-04-24T13:57:58;8.20;99.90
50586;DHT22;36542;51.700;8.846;2023-04-24T14:00:23;8.10;99.90
50586;DHT22;36542;51.700;8.846;2023-04-24T14:02:49;8.10;99.90
50586;DHT22;36542;51.700;8.846;2023-04-24T14:05:15;8.10;99.90
50586;DHT22;36542;51.700;8.846;2023-04-24T14:07:41;8.00;99.90
50586;DHT22;36542;51.700;8.846;2023-04-24T14:10:07;8.00;99.90
50586;DHT22;36542;51.700;8.846;2023-04-24T14:12:33;7.90;99.90
50586;DHT22;36542;51.700;8.846;2023-04-24T14:14:58;7.90;99.90
50586;DHT22;36542;51.700;8.846;2023-04-24T14:17:24;7.90;99.90
50586;DHT22;36542;51.700;8.846;2023-04-24T14:19:49;7.80;99.90
50586;DHT22;36542;51.700;8.846;2023-04-24T14:22:17;7.90;99.90
50586;DHT22;36542;51.700;8.846;2023-04-24T14:24:42;7.90;99.90
50586;DHT22;36542;51.700;8.846;2023-04-24T14:27:08;7.90;99.90
50586;DHT22;36542;51.700;8.846;2023-04-24T14:29:33;7.90;99.90
50586;DHT22;36542;51.700;8.846;2023-04-24T14:31:59;7.90;99.90
50586;DHT22;36542;51.700;8.846;2023-04-24T14:34:24;8.00;99.90
50586;DHT22;36542;51.700;8.846;2023-04-24T14:36:50;7.90;99.90
50586;DHT22;36542;51.700;8.846;2023-04-24T14:39:15;8.00;99.90
50586;DHT22;36542;51.700;8.846;2023-04-24T14:41:41;8.00;99.90
50586;DHT22;36542;51.700;8.846;2023-04-24T14:44:06;7.90;99.90
50586;DHT22;36542;51.700;8.846;2023-04-24T14:46:32;7.90;99.90
50586;DHT22;36542;51.700;8.846;2023-04-24T14:48:57;8.00;99.90
50586;DHT22;36542;51.700;8.846;2023-04-24T14:51:23;8.10;99.90
50586;DHT22;36542;51.700;8.846;2023-04-24T14:53:48;8.10;99.90
50586;DHT22;36542;51.700;8.846;2023-04-24T14:56:15;8.20;99.90
50586;DHT22;36542;51.700;8.846;2023-04-24T14:58:40;8.30;99.90
50586;DHT22;36542;51.700;8.846;2023-04-24T15:01:06;8.40;99.90
50586;DHT22;36542;51.700;8.846;2023-04-24T15:03:31;8.40;99.90
50586;DHT22;36542;51.700;8.846;2023-04-24T15:05:57;8.40;99.90
50586;DHT22;36542;51.700;8.846;2023-04-24T15:08:22;8.40;99.90
50586;DHT22;36542;51.700;8.846;2023-04-24T15:10:48;8.40;99.90
50586;DHT22;36542;51.700;8.846;2023-04-24T15:13:14;8.40;99.90
50586;DHT22;36542;51.700;8.846;2023-04-24T15:15:39;8.40;99.90
50586;DHT22;36542;51.700;8.846;2023-04-24T15:18:05;8.40;99.90
50586;DHT22;36542;51.700;8.846;2023-04-24T15:20:31;8.40;99.90
50586;DHT22;36542;51.700;8.846;2023-04-24T15:22:56;8.30;99.90
50586;DHT22;36542;51.700;8.846;2023-04-24T15:25:24;8.30;99.90
50586;DHT22;36542;51.700;8.846;2023-04-24T15:27:50;8.30;99.90
50586;DHT22;36542;51.700;8.846;2023-04-24T15:30:15;8.20;99.90
50586;DHT22;36542;51.700;8.846;2023-04-24T15:32:41;8.20;99.90
50586;DHT22;36542;51.700;8.846;2023-04-24T15:35:07;8.10;99.90
50586;DHT22;36542;51.700;8.846;2023-04-24T15:37:33;8.10;99.90
50586;DHT22;36542;51.700;8.846;2023-04-24T15:39:58;8.20;99.90